Time;durP1;ratioP1;P1;durP2;ratioP2;P2;SDS_P1;SDS_P2;PMS_P1;PMS_P2;Temp;Humidity;BMP_temperature;BMP_pressure;BME280_temperature;BME280_humidity;BME280_pressure;Samples;Min_cycle;Max_cycle;Signal;HPM_P1;HPM_P2
2021/09/11 00:00:28;;;;;;;10.85;9.9;;;;;;;17.46;72.51074;95387.41;;;;
2021/09/11 00:01:29;;;;;;;10.85;9.9;;;;;;;17.46;72.51074;95387.41;;;;
2021/09/11 00:02:30;;;;;;;10.85;9.9;;;;;;;17.46;72.51074;95387.41;;;;
2021/09/11 00:03:31;;;;;;;10.85;9.9;;;;;;;17.46;72.51074;95387.41;;;;
2021/09/11 00:04:32;;;;;;;13.1;11.8;;;;;;;17.56;72.77734;95391.5;;;;
2021/09/11 00:05:33;;;;;;;13.1;11.8;;;;;;;17.56;72.77734;95391.5;;;;
2021/09/11 00:06:33;;;;;;;13.1;11.8;;;;;;;17.56;72.77734;95391.5;;;;
2021/09/11 00:07:34;;;;;;;13.1;11.8;;;;;;;17.56;72.77734;95391.5;;;;
2021/09/11 00:08:34;;;;;;;13.1;11.8;;;;;;;17.56;72.77734;95391.5;;;;
2021/09/11 00:09:35;;;;;;;13.1;11.8;;;;;;;17.56;72.77734;95391.5;;;;
2021/09/11 00:10:36;;;;;;;13.1;11.8;;;;;;;17.56;72.77734;95391.5;;;;
2021/09/11 00:11:37;;;;;;;13.1;11.8;;;;;;;17.56;72.77734;95391.5;;;;
2021/09/11 00:12:37;;;;;;;13.1;11.8;;;;;;;17.56;72.77734;95391.5;;;;
2021/09/11 00:13:38;;;;;;;13.1;11.8;;;;;;;17.56;72.77734;95391.5;;;;
2021/09/11 00:14:39;;;;;;;19.45;16.75;;;;;;;17.52;73.24805;95388.62;;;;
2021/09/11 00:15:39;;;;;;;19.45;16.75;;;;;;;17.52;73.24805;95388.62;;;;
2021/09/11 00:16:40;;;;;;;19.45;16.75;;;;;;;17.52;73.24805;95388.62;;;;
2021/09/11 00:17:41;;;;;;;19.45;16.75;;;;;;;17.52;73.24805;95388.62;;;;
2021/09/11 00:18:42;;;;;;;19.45;16.75;;;;;;;17.52;73.24805;95388.62;;;;
2021/09/11 00:19:43;;;;;;;19.45;16.75;;;;;;;17.52;73.24805;95388.62;;;;
2021/09/11 00:20:43;;;;;;;19.45;16.75;;;;;;;17.52;73.24805;95388.62;;;;
2021/09/11 00:21:44;;;;;;;19.45;16.75;;;;;;;17.52;73.24805;95388.62;;;;
2021/09/11 00:22:44;;;;;;;19.45;16.75;;;;;;;17.52;73.24805;95388.62;;;;
2021/09/11 00:23:45;;;;;;;19.45;16.75;;;;;;;17.52;73.24805;95388.62;;;;
2021/09/11 00:24:46;;;;;;;19.45;16.75;;;;;;;17.52;73.24805;95388.62;;;;
2021/09/11 00:25:46;;;;;;;19.9;17.95;;;;;;;17.48;74.08984;95378.02;;;;
2021/09/11 00:26:47;;;;;;;19.9;17.95;;;;;;;17.48;74.08984;95378.02;;;;
2021/09/11 00:27:47;;;;;;;19.9;17.95;;;;;;;17.48;74.08984;95378.02;;;;
2021/09/11 00:28:48;;;;;;;19.9;17.95;;;;;;;17.48;74.08984;95378.02;;;;
2021/09/11 00:29:48;;;;;;;19.9;17.95;;;;;;;17.48;74.08984;95378.02;;;;
2021/09/11 00:30:49;;;;;;;19.9;17.95;;;;;;;17.48;74.08984;95378.02;;;;
2021/09/11 00:31:49;;;;;;;19.9;17.95;;;;;;;17.48;74.08984;95378.02;;;;
2021/09/11 00:32:50;;;;;;;19.9;17.95;;;;;;;17.48;74.08984;95378.02;;;;
2021/09/11 00:33:51;;;;;;;19.9;17.95;;;;;;;17.48;74.08984;95378.02;;;;
2021/09/11 00:34:51;;;;;;;19.9;17.95;;;;;;;17.48;74.08984;95378.02;;;;
2021/09/11 00:35:52;;;;;;;22.1;19;;;;;;;17.39;74.94434;95383.32;;;;
2021/09/11 00:36:52;;;;;;;22.1;19;;;;;;;17.39;74.94434;95383.32;;;;
2021/09/11 00:37:52;;;;;;;22.1;19;;;;;;;17.39;74.94434;95383.32;;;;
2021/09/11 00:38:53;;;;;;;22.1;19;;;;;;;17.39;74.94434;95383.32;;;;
2021/09/11 00:39:53;;;;;;;22.1;19;;;;;;;17.39;74.94434;95383.32;;;;
2021/09/11 00:40:54;;;;;;;22.1;19;;;;;;;17.39;74.94434;95383.32;;;;
2021/09/11 00:41:54;;;;;;;22.1;19;;;;;;;17.39;74.94434;95383.32;;;;
2021/09/11 00:42:55;;;;;;;22.1;19;;;;;;;17.39;74.94434;95383.32;;;;
2021/09/11 00:43:56;;;;;;;22.1;19;;;;;;;17.39;74.94434;95383.32;;;;
2021/09/11 00:44:56;;;;;;;22.1;19;;;;;;;17.39;74.94434;95383.32;;;;
2021/09/11 00:45:57;;;;;;;22.1;19;;;;;;;17.39;74.94434;95383.32;;;;
2021/09/11 00:46:58;;;;;;;20.1;18.05;;;;;;;17.4;75.58691;95390.4;;;;
2021/09/11 00:47:58;;;;;;;20.1;18.05;;;;;;;17.4;75.58691;95390.4;;;;
2021/09/11 00:48:59;;;;;;;20.1;18.05;;;;;;;17.4;75.58691;95390.4;;;;
2021/09/11 00:49:59;;;;;;;20.1;18.05;;;;;;;17.4;75.58691;95390.4;;;;
2021/09/11 00:51:02;;;;;;;20.1;18.05;;;;;;;17.4;75.58691;95390.4;;;;
2021/09/11 00:52:02;;;;;;;20.1;18.05;;;;;;;17.4;75.58691;95390.4;;;;
2021/09/11 00:53:03;;;;;;;20.1;18.05;;;;;;;17.4;75.58691;95390.4;;;;
2021/09/11 00:54:04;;;;;;;20.1;18.05;;;;;;;17.4;75.58691;95390.4;;;;
2021/09/11 00:55:05;;;;;;;20.1;18.05;;;;;;;17.4;75.58691;95390.4;;;;
2021/09/11 00:56:08;;;;;;;20.1;18.05;;;;;;;17.4;75.58691;95390.4;;;;
2021/09/11 00:57:09;;;;;;;21.9;19.75;;;;;;;17.38;76.16992;95395.73;;;;
2021/09/11 00:58:10;;;;;;;21.9;19.75;;;;;;;17.38;76.16992;95395.73;;;;
2021/09/11 00:59:10;;;;;;;21.9;19.75;;;;;;;17.38;76.16992;95395.73;;;;
2021/09/11 01:00:11;;;;;;;21.9;19.75;;;;;;;17.38;76.16992;95395.73;;;;
2021/09/11 01:01:14;;;;;;;21.9;19.75;;;;;;;17.38;76.16992;95395.73;;;;
2021/09/11 01:02:14;;;;;;;21.9;19.75;;;;;;;17.38;76.16992;95395.73;;;;
2021/09/11 01:03:15;;;;;;;21.9;19.75;;;;;;;17.38;76.16992;95395.73;;;;
2021/09/11 01:04:15;;;;;;;21.9;19.75;;;;;;;17.38;76.16992;95395.73;;;;
2021/09/11 01:05:16;;;;;;;21.9;19.75;;;;;;;17.38;76.16992;95395.73;;;;
2021/09/11 01:06:17;;;;;;;21.9;19.75;;;;;;;17.38;76.16992;95395.73;;;;
2021/09/11 01:07:18;;;;;;;21.9;19.75;;;;;;;17.38;76.16992;95395.73;;;;
2021/09/11 01:08:19;;;;;;;21.8;18.8;;;;;;;17.43;76.81934;95394.34;;;;
2021/09/11 01:09:19;;;;;;;21.8;18.8;;;;;;;17.43;76.81934;95394.34;;;;
2021/09/11 01:10:21;;;;;;;21.8;18.8;;;;;;;17.43;76.81934;95394.34;;;;
2021/09/11 01:11:21;;;;;;;21.8;18.8;;;;;;;17.43;76.81934;95394.34;;;;
2021/09/11 01:12:22;;;;;;;21.8;18.8;;;;;;;17.43;76.81934;95394.34;;;;
2021/09/11 01:13:22;;;;;;;21.8;18.8;;;;;;;17.43;76.81934;95394.34;;;;
2021/09/11 01:14:23;;;;;;;21.8;18.8;;;;;;;17.43;76.81934;95394.34;;;;
2021/09/11 01:15:23;;;;;;;21.8;18.8;;;;;;;17.43;76.81934;95394.34;;;;
2021/09/11 01:16:32;;;;;;;21.8;18.8;;;;;;;17.43;76.81934;95394.34;;;;
2021/09/11 01:17:33;;;;;;;21.8;18.8;;;;;;;17.43;76.81934;95394.34;;;;
2021/09/11 01:18:34;;;;;;;21.55;19.55;;;;;;;17.39;77.21387;95396.97;;;;
2021/09/11 01:19:34;;;;;;;21.55;19.55;;;;;;;17.39;77.21387;95396.97;;;;
2021/09/11 01:20:38;;;;;;;21.55;19.55;;;;;;;17.39;77.21387;95396.97;;;;
2021/09/11 01:21:39;;;;;;;21.55;19.55;;;;;;;17.39;77.21387;95396.97;;;;
2021/09/11 01:22:40;;;;;;;21.55;19.55;;;;;;;17.39;77.21387;95396.97;;;;
2021/09/11 01:23:40;;;;;;;21.55;19.55;;;;;;;17.39;77.21387;95396.97;;;;
2021/09/11 01:24:41;;;;;;;21.55;19.55;;;;;;;17.39;77.21387;95396.97;;;;
2021/09/11 01:26:00;;;;;;;21.55;19.55;;;;;;;17.39;77.21387;95396.97;;;;
2021/09/11 01:27:00;;;;;;;21.55;19.55;;;;;;;17.39;77.21387;95396.97;;;;
2021/09/11 01:28:01;;;;;;;21.55;19.55;;;;;;;17.39;77.21387;95396.97;;;;
2021/09/11 01:29:01;;;;;;;20.35;18.45;;;;;;;17.44;77.83105;95403.36;;;;
2021/09/11 01:30:02;;;;;;;20.35;18.45;;;;;;;17.44;77.83105;95403.36;;;;
2021/09/11 01:31:05;;;;;;;20.35;18.45;;;;;;;17.44;77.83105;95403.36;;;;
2021/09/11 01:32:06;;;;;;;20.35;18.45;;;;;;;17.44;77.83105;95403.36;;;;
2021/09/11 01:33:13;;;;;;;20.35;18.45;;;;;;;17.44;77.83105;95403.36;;;;
2021/09/11 01:34:14;;;;;;;20.35;18.45;;;;;;;17.44;77.83105;95403.36;;;;
2021/09/11 01:35:15;;;;;;;20.35;18.45;;;;;;;17.44;77.83105;95403.36;;;;
2021/09/11 01:36:16;;;;;;;20.35;18.45;;;;;;;17.44;77.83105;95403.36;;;;
2021/09/11 01:37:16;;;;;;;20.35;18.45;;;;;;;17.44;77.83105;95403.36;;;;
2021/09/11 01:38:18;;;;;;;20.35;18.45;;;;;;;17.44;77.83105;95403.36;;;;
2021/09/11 01:39:18;;;;;;;20.35;18.45;;;;;;;17.44;77.83105;95403.36;;;;
2021/09/11 01:40:19;;;;;;;19.65;17.75;;;;;;;17.43;78.23047;95411.71;;;;
2021/09/11 01:41:19;;;;;;;19.65;17.75;;;;;;;17.43;78.23047;95411.71;;;;
2021/09/11 01:42:20;;;;;;;19.65;17.75;;;;;;;17.43;78.23047;95411.71;;;;
2021/09/11 01:43:22;;;;;;;19.65;17.75;;;;;;;17.43;78.23047;95411.71;;;;
2021/09/11 01:44:28;;;;;;;19.65;17.75;;;;;;;17.43;78.23047;95411.71;;;;
2021/09/11 01:45:28;;;;;;;19.65;17.75;;;;;;;17.43;78.23047;95411.71;;;;
2021/09/11 01:46:29;;;;;;;19.65;17.75;;;;;;;17.43;78.23047;95411.71;;;;
2021/09/11 01:47:29;;;;;;;19.65;17.75;;;;;;;17.43;78.23047;95411.71;;;;
2021/09/11 01:48:30;;;;;;;19.65;17.75;;;;;;;17.43;78.23047;95411.71;;;;
2021/09/11 01:49:30;;;;;;;19.65;17.75;;;;;;;17.43;78.23047;95411.71;;;;
2021/09/11 01:50:31;;;;;;;20.55;18.65;;;;;;;17.42;78.62012;95414.15;;;;
2021/09/11 01:51:31;;;;;;;20.55;18.65;;;;;;;17.42;78.62012;95414.15;;;;
2021/09/11 01:52:32;;;;;;;20.55;18.65;;;;;;;17.42;78.62012;95414.15;;;;
2021/09/11 01:53:33;;;;;;;20.55;18.65;;;;;;;17.42;78.62012;95414.15;;;;
2021/09/11 01:54:33;;;;;;;20.55;18.65;;;;;;;17.42;78.62012;95414.15;;;;
2021/09/11 01:55:34;;;;;;;20.55;18.65;;;;;;;17.42;78.62012;95414.15;;;;
2021/09/11 01:56:34;;;;;;;20.55;18.65;;;;;;;17.42;78.62012;95414.15;;;;
2021/09/11 01:57:35;;;;;;;20.55;18.65;;;;;;;17.42;78.62012;95414.15;;;;
2021/09/11 01:58:36;;;;;;;20.55;18.65;;;;;;;17.42;78.62012;95414.15;;;;
2021/09/11 01:59:36;;;;;;;20.55;18.65;;;;;;;17.42;78.62012;95414.15;;;;
2021/09/11 02:00:39;;;;;;;20.55;18.65;;;;;;;17.42;78.62012;95414.15;;;;
2021/09/11 02:01:39;;;;;;;20.05;18.15;;;;;;;17.48;78.92285;95424.97;;;;
2021/09/11 02:02:40;;;;;;;20.05;18.15;;;;;;;17.48;78.92285;95424.97;;;;
2021/09/11 02:03:41;;;;;;;20.05;18.15;;;;;;;17.48;78.92285;95424.97;;;;
2021/09/11 02:04:41;;;;;;;20.05;18.15;;;;;;;17.48;78.92285;95424.97;;;;
2021/09/11 02:05:42;;;;;;;20.05;18.15;;;;;;;17.48;78.92285;95424.97;;;;
2021/09/11 02:06:42;;;;;;;20.05;18.15;;;;;;;17.48;78.92285;95424.97;;;;
2021/09/11 02:07:43;;;;;;;20.05;18.15;;;;;;;17.48;78.92285;95424.97;;;;
2021/09/11 02:08:44;;;;;;;20.05;18.15;;;;;;;17.48;78.92285;95424.97;;;;
2021/09/11 02:09:44;;;;;;;20.05;18.15;;;;;;;17.48;78.92285;95424.97;;;;
2021/09/11 02:10:45;;;;;;;20.05;18.15;;;;;;;17.48;78.92285;95424.97;;;;
2021/09/11 02:11:45;;;;;;;19.2;17.5;;;;;;;17.43;79.44629;95432.98;;;;
2021/09/11 02:12:46;;;;;;;19.2;17.5;;;;;;;17.43;79.44629;95432.98;;;;
2021/09/11 02:13:46;;;;;;;19.2;17.5;;;;;;;17.43;79.44629;95432.98;;;;
2021/09/11 02:14:47;;;;;;;19.2;17.5;;;;;;;17.43;79.44629;95432.98;;;;
2021/09/11 02:15:47;;;;;;;19.2;17.5;;;;;;;17.43;79.44629;95432.98;;;;
2021/09/11 02:16:48;;;;;;;19.2;17.5;;;;;;;17.43;79.44629;95432.98;;;;
2021/09/11 02:17:48;;;;;;;19.2;17.5;;;;;;;17.43;79.44629;95432.98;;;;
2021/09/11 02:18:49;;;;;;;19.2;17.5;;;;;;;17.43;79.44629;95432.98;;;;
2021/09/11 02:19:49;;;;;;;19.2;17.5;;;;;;;17.43;79.44629;95432.98;;;;
2021/09/11 02:20:51;;;;;;;19.2;17.5;;;;;;;17.43;79.44629;95432.98;;;;
2021/09/11 02:21:52;;;;;;;19.2;17.5;;;;;;;17.43;79.44629;95432.98;;;;
2021/09/11 02:22:52;;;;;;;19.2;17.5;;;;;;;17.43;79.44629;95432.98;;;;
2021/09/11 02:23:53;;;;;;;19.2;17.5;;;;;;;17.43;79.44629;95432.98;;;;
2021/09/11 02:24:54;;;;;;;19.2;17.5;;;;;;;17.43;79.44629;95432.98;;;;
2021/09/11 02:25:55;;;;;;;19.2;17.5;;;;;;;17.43;79.44629;95432.98;;;;
2021/09/11 02:26:55;;;;;;;19.2;17.5;;;;;;;17.43;79.44629;95432.98;;;;
2021/09/11 02:27:56;;;;;;;19.2;17.5;;;;;;;17.43;79.44629;95432.98;;;;
2021/09/11 02:28:56;;;;;;;19.2;17.5;;;;;;;17.43;79.44629;95432.98;;;;
2021/09/11 02:29:57;;;;;;;19.2;17.5;;;;;;;17.43;79.44629;95432.98;;;;
2021/09/11 02:30:58;;;;;;;19.2;17.5;;;;;;;17.43;79.44629;95432.98;;;;
2021/09/11 02:31:58;;;;;;;19.2;17.5;;;;;;;17.43;79.44629;95432.98;;;;
2021/09/11 02:33:00;;;;;;;15.35;13.95;;;;;;;17.39;80.24121;95441.6;;;;
2021/09/11 02:34:01;;;;;;;15.35;13.95;;;;;;;17.39;80.24121;95441.6;;;;
2021/09/11 02:35:01;;;;;;;15.35;13.95;;;;;;;17.39;80.24121;95441.6;;;;
2021/09/11 02:36:02;;;;;;;15.35;13.95;;;;;;;17.39;80.24121;95441.6;;;;
2021/09/11 02:37:03;;;;;;;15.35;13.95;;;;;;;17.39;80.24121;95441.6;;;;
2021/09/11 02:38:04;;;;;;;15.35;13.95;;;;;;;17.39;80.24121;95441.6;;;;
2021/09/11 02:39:04;;;;;;;15.35;13.95;;;;;;;17.39;80.24121;95441.6;;;;
2021/09/11 02:40:05;;;;;;;15.35;13.95;;;;;;;17.39;80.24121;95441.6;;;;
2021/09/11 02:41:07;;;;;;;15.35;13.95;;;;;;;17.39;80.24121;95441.6;;;;
2021/09/11 02:42:07;;;;;;;15.35;13.95;;;;;;;17.39;80.24121;95441.6;;;;
2021/09/11 02:43:08;;;;;;;15.35;13.95;;;;;;;17.39;80.24121;95441.6;;;;
2021/09/11 02:44:08;;;;;;;13.85;12.45;;;;;;;17.41;80.74512;95445.28;;;;
2021/09/11 02:45:09;;;;;;;13.85;12.45;;;;;;;17.41;80.74512;95445.28;;;;
2021/09/11 02:46:11;;;;;;;13.85;12.45;;;;;;;17.41;80.74512;95445.28;;;;
2021/09/11 02:47:11;;;;;;;13.85;12.45;;;;;;;17.41;80.74512;95445.28;;;;
2021/09/11 02:48:12;;;;;;;13.85;12.45;;;;;;;17.41;80.74512;95445.28;;;;
2021/09/11 02:49:12;;;;;;;13.85;12.45;;;;;;;17.41;80.74512;95445.28;;;;
2021/09/11 02:50:13;;;;;;;13.85;12.45;;;;;;;17.41;80.74512;95445.28;;;;
2021/09/11 02:51:15;;;;;;;13.85;12.45;;;;;;;17.41;80.74512;95445.28;;;;
2021/09/11 02:52:16;;;;;;;13.85;12.45;;;;;;;17.41;80.74512;95445.28;;;;
2021/09/11 02:53:16;;;;;;;13.85;12.45;;;;;;;17.41;80.74512;95445.28;;;;
2021/09/11 02:54:17;;;;;;;12.8;11.6;;;;;;;17.33;80.85059;95458.51;;;;
2021/09/11 02:55:17;;;;;;;12.8;11.6;;;;;;;17.33;80.85059;95458.51;;;;
2021/09/11 02:56:18;;;;;;;12.8;11.6;;;;;;;17.33;80.85059;95458.51;;;;
2021/09/11 02:57:18;;;;;;;12.8;11.6;;;;;;;17.33;80.85059;95458.51;;;;
2021/09/11 02:58:22;;;;;;;12.8;11.6;;;;;;;17.33;80.85059;95458.51;;;;
2021/09/11 02:59:23;;;;;;;12.8;11.6;;;;;;;17.33;80.85059;95458.51;;;;
2021/09/11 03:00:23;;;;;;;12.8;11.6;;;;;;;17.33;80.85059;95458.51;;;;
2021/09/11 03:01:24;;;;;;;12.8;11.6;;;;;;;17.33;80.85059;95458.51;;;;
2021/09/11 03:02:25;;;;;;;12.8;11.6;;;;;;;17.33;80.85059;95458.51;;;;
2021/09/11 03:03:26;;;;;;;12.8;11.6;;;;;;;17.33;80.85059;95458.51;;;;
2021/09/11 03:04:26;;;;;;;12.8;11.6;;;;;;;17.33;80.85059;95458.51;;;;
2021/09/11 03:05:27;;;;;;;13;11.8;;;;;;;17.31;81.1709;95457.14;;;;
2021/09/11 03:06:27;;;;;;;13;11.8;;;;;;;17.31;81.1709;95457.14;;;;
2021/09/11 03:07:28;;;;;;;13;11.8;;;;;;;17.31;81.1709;95457.14;;;;
2021/09/11 03:08:28;;;;;;;13;11.8;;;;;;;17.31;81.1709;95457.14;;;;
2021/09/11 03:09:29;;;;;;;13;11.8;;;;;;;17.31;81.1709;95457.14;;;;
2021/09/11 03:10:30;;;;;;;13;11.8;;;;;;;17.31;81.1709;95457.14;;;;
2021/09/11 03:11:30;;;;;;;13;11.8;;;;;;;17.31;81.1709;95457.14;;;;
2021/09/11 03:12:30;;;;;;;13;11.8;;;;;;;17.31;81.1709;95457.14;;;;
2021/09/11 03:13:31;;;;;;;13;11.8;;;;;;;17.31;81.1709;95457.14;;;;
2021/09/11 03:14:31;;;;;;;13;11.8;;;;;;;17.31;81.1709;95457.14;;;;
2021/09/11 03:15:32;;;;;;;13;11.8;;;;;;;17.31;81.1709;95457.14;;;;
2021/09/11 03:16:32;;;;;;;13;11.8;;;;;;;17.31;81.1709;95457.14;;;;
2021/09/11 03:17:33;;;;;;;13;11.8;;;;;;;17.31;81.1709;95457.14;;;;
2021/09/11 03:18:33;;;;;;;13;11.8;;;;;;;17.31;81.1709;95457.14;;;;
2021/09/11 03:19:34;;;;;;;13;11.8;;;;;;;17.31;81.1709;95457.14;;;;
2021/09/11 03:20:35;;;;;;;13;11.8;;;;;;;17.31;81.1709;95457.14;;;;
2021/09/11 03:21:36;;;;;;;13;11.8;;;;;;;17.31;81.1709;95457.14;;;;
2021/09/11 03:22:36;;;;;;;13;11.8;;;;;;;17.31;81.1709;95457.14;;;;
2021/09/11 03:23:37;;;;;;;13;11.8;;;;;;;17.31;81.1709;95457.14;;;;
2021/09/11 03:24:37;;;;;;;13;11.8;;;;;;;17.31;81.1709;95457.14;;;;
2021/09/11 03:25:38;;;;;;;13;11.8;;;;;;;17.31;81.1709;95457.14;;;;
2021/09/11 03:26:38;;;;;;;15.2;13.7;;;;;;;16.94;82.00293;95454.27;;;;
2021/09/11 03:27:39;;;;;;;15.2;13.7;;;;;;;16.94;82.00293;95454.27;;;;
2021/09/11 03:28:39;;;;;;;15.2;13.7;;;;;;;16.94;82.00293;95454.27;;;;
2021/09/11 03:29:40;;;;;;;15.2;13.7;;;;;;;16.94;82.00293;95454.27;;;;
2021/09/11 03:30:40;;;;;;;15.2;13.7;;;;;;;16.94;82.00293;95454.27;;;;
2021/09/11 03:31:41;;;;;;;15.2;13.7;;;;;;;16.94;82.00293;95454.27;;;;
2021/09/11 03:32:41;;;;;;;15.2;13.7;;;;;;;16.94;82.00293;95454.27;;;;
2021/09/11 03:33:42;;;;;;;15.2;13.7;;;;;;;16.94;82.00293;95454.27;;;;
2021/09/11 03:34:42;;;;;;;15.2;13.7;;;;;;;16.94;82.00293;95454.27;;;;
2021/09/11 03:35:42;;;;;;;15.2;13.7;;;;;;;16.94;82.00293;95454.27;;;;
2021/09/11 03:36:43;;;;;;;15.2;13.7;;;;;;;16.94;82.00293;95454.27;;;;
2021/09/11 03:37:43;;;;;;;14.8;13.2;;;;;;;16.63;83.09473;95434.74;;;;
2021/09/11 03:38:44;;;;;;;14.8;13.2;;;;;;;16.63;83.09473;95434.74;;;;
2021/09/11 03:39:44;;;;;;;14.8;13.2;;;;;;;16.63;83.09473;95434.74;;;;
2021/09/11 03:40:45;;;;;;;14.8;13.2;;;;;;;16.63;83.09473;95434.74;;;;
2021/09/11 03:41:45;;;;;;;14.8;13.2;;;;;;;16.63;83.09473;95434.74;;;;
2021/09/11 03:42:46;;;;;;;14.8;13.2;;;;;;;16.63;83.09473;95434.74;;;;
2021/09/11 03:43:46;;;;;;;14.8;13.2;;;;;;;16.63;83.09473;95434.74;;;;
2021/09/11 03:44:47;;;;;;;14.8;13.2;;;;;;;16.63;83.09473;95434.74;;;;
2021/09/11 03:45:47;;;;;;;14.8;13.2;;;;;;;16.63;83.09473;95434.74;;;;
2021/09/11 03:46:48;;;;;;;14.8;13.2;;;;;;;16.63;83.09473;95434.74;;;;
2021/09/11 03:47:48;;;;;;;14.35;13;;;;;;;16.47;84.0166;95439.87;;;;
2021/09/11 03:48:49;;;;;;;14.35;13;;;;;;;16.47;84.0166;95439.87;;;;
2021/09/11 03:49:49;;;;;;;14.35;13;;;;;;;16.47;84.0166;95439.87;;;;
2021/09/11 03:50:50;;;;;;;14.35;13;;;;;;;16.47;84.0166;95439.87;;;;
2021/09/11 03:51:50;;;;;;;14.35;13;;;;;;;16.47;84.0166;95439.87;;;;
2021/09/11 03:52:51;;;;;;;14.35;13;;;;;;;16.47;84.0166;95439.87;;;;
2021/09/11 03:53:51;;;;;;;14.35;13;;;;;;;16.47;84.0166;95439.87;;;;
2021/09/11 03:54:51;;;;;;;14.35;13;;;;;;;16.47;84.0166;95439.87;;;;
2021/09/11 03:55:52;;;;;;;14.35;13;;;;;;;16.47;84.0166;95439.87;;;;
2021/09/11 03:56:52;;;;;;;14.35;13;;;;;;;16.47;84.0166;95439.87;;;;
2021/09/11 03:57:53;;;;;;;14.35;13;;;;;;;16.47;84.0166;95439.87;;;;
2021/09/11 03:58:53;;;;;;;12.95;11.75;;;;;;;16.32;84.9502;95441.56;;;;
2021/09/11 03:59:54;;;;;;;12.95;11.75;;;;;;;16.32;84.9502;95441.56;;;;
2021/09/11 04:00:54;;;;;;;12.95;11.75;;;;;;;16.32;84.9502;95441.56;;;;
2021/09/11 04:01:55;;;;;;;12.95;11.75;;;;;;;16.32;84.9502;95441.56;;;;
2021/09/11 04:02:56;;;;;;;12.95;11.75;;;;;;;16.32;84.9502;95441.56;;;;
2021/09/11 04:03:56;;;;;;;12.95;11.75;;;;;;;16.32;84.9502;95441.56;;;;
2021/09/11 04:04:57;;;;;;;12.95;11.75;;;;;;;16.32;84.9502;95441.56;;;;
2021/09/11 04:05:57;;;;;;;12.95;11.75;;;;;;;16.32;84.9502;95441.56;;;;
2021/09/11 04:06:58;;;;;;;12.95;11.75;;;;;;;16.32;84.9502;95441.56;;;;
2021/09/11 04:07:58;;;;;;;12.95;11.75;;;;;;;16.32;84.9502;95441.56;;;;
2021/09/11 04:08:59;;;;;;;12.95;11.75;;;;;;;16.32;84.9502;95441.56;;;;
2021/09/11 04:09:59;;;;;;;13.3;11.95;;;;;;;16.21;86.33301;95434.44;;;;
2021/09/11 04:11:00;;;;;;;13.3;11.95;;;;;;;16.21;86.33301;95434.44;;;;
2021/09/11 04:12:00;;;;;;;13.3;11.95;;;;;;;16.21;86.33301;95434.44;;;;
2021/09/11 04:13:01;;;;;;;13.3;11.95;;;;;;;16.21;86.33301;95434.44;;;;
2021/09/11 04:14:02;;;;;;;13.3;11.95;;;;;;;16.21;86.33301;95434.44;;;;
2021/09/11 04:15:02;;;;;;;13.3;11.95;;;;;;;16.21;86.33301;95434.44;;;;
2021/09/11 04:16:04;;;;;;;13.3;11.95;;;;;;;16.21;86.33301;95434.44;;;;
2021/09/11 04:17:04;;;;;;;13.3;11.95;;;;;;;16.21;86.33301;95434.44;;;;
2021/09/11 04:18:05;;;;;;;13.3;11.95;;;;;;;16.21;86.33301;95434.44;;;;
2021/09/11 04:19:05;;;;;;;13.3;11.95;;;;;;;16.21;86.33301;95434.44;;;;
2021/09/11 04:20:06;;;;;;;15.45;13.85;;;;;;;16.12;87.69824;95426.92;;;;
2021/09/11 04:21:07;;;;;;;15.45;13.85;;;;;;;16.12;87.69824;95426.92;;;;
2021/09/11 04:22:08;;;;;;;15.45;13.85;;;;;;;16.12;87.69824;95426.92;;;;
2021/09/11 04:23:09;;;;;;;15.45;13.85;;;;;;;16.12;87.69824;95426.92;;;;
2021/09/11 04:24:09;;;;;;;15.45;13.85;;;;;;;16.12;87.69824;95426.92;;;;
2021/09/11 04:25:10;;;;;;;15.45;13.85;;;;;;;16.12;87.69824;95426.92;;;;
2021/09/11 04:26:11;;;;;;;15.45;13.85;;;;;;;16.12;87.69824;95426.92;;;;
2021/09/11 04:27:11;;;;;;;15.45;13.85;;;;;;;16.12;87.69824;95426.92;;;;
2021/09/11 04:28:12;;;;;;;15.45;13.85;;;;;;;16.12;87.69824;95426.92;;;;
2021/09/11 04:29:12;;;;;;;15.45;13.85;;;;;;;16.12;87.69824;95426.92;;;;
2021/09/11 04:30:13;;;;;;;15.45;13.85;;;;;;;16.12;87.69824;95426.92;;;;
2021/09/11 04:31:14;;;;;;;15.4;13.8;;;;;;;16.1;88.91211;95426.51;;;;
2021/09/11 04:32:14;;;;;;;15.4;13.8;;;;;;;16.1;88.91211;95426.51;;;;
2021/09/11 04:33:15;;;;;;;15.4;13.8;;;;;;;16.1;88.91211;95426.51;;;;
2021/09/11 04:34:15;;;;;;;15.4;13.8;;;;;;;16.1;88.91211;95426.51;;;;
2021/09/11 04:35:16;;;;;;;15.4;13.8;;;;;;;16.1;88.91211;95426.51;;;;
2021/09/11 04:36:16;;;;;;;15.4;13.8;;;;;;;16.1;88.91211;95426.51;;;;
2021/09/11 04:37:17;;;;;;;15.4;13.8;;;;;;;16.1;88.91211;95426.51;;;;
2021/09/11 04:38:17;;;;;;;15.4;13.8;;;;;;;16.1;88.91211;95426.51;;;;
2021/09/11 04:39:18;;;;;;;15.4;13.8;;;;;;;16.1;88.91211;95426.51;;;;
2021/09/11 04:40:18;;;;;;;15.4;13.8;;;;;;;16.1;88.91211;95426.51;;;;
2021/09/11 04:41:19;;;;;;;14.85;13.35;;;;;;;16.06;89.96191;95426.22;;;;
2021/09/11 04:42:19;;;;;;;14.85;13.35;;;;;;;16.06;89.96191;95426.22;;;;
2021/09/11 04:43:20;;;;;;;14.85;13.35;;;;;;;16.06;89.96191;95426.22;;;;
2021/09/11 04:44:21;;;;;;;14.85;13.35;;;;;;;16.06;89.96191;95426.22;;;;
2021/09/11 04:45:22;;;;;;;14.85;13.35;;;;;;;16.06;89.96191;95426.22;;;;
2021/09/11 04:46:23;;;;;;;14.85;13.35;;;;;;;16.06;89.96191;95426.22;;;;
2021/09/11 04:47:23;;;;;;;14.85;13.35;;;;;;;16.06;89.96191;95426.22;;;;
2021/09/11 04:48:24;;;;;;;14.85;13.35;;;;;;;16.06;89.96191;95426.22;;;;
2021/09/11 04:49:24;;;;;;;14.85;13.35;;;;;;;16.06;89.96191;95426.22;;;;
2021/09/11 04:50:25;;;;;;;14.85;13.35;;;;;;;16.06;89.96191;95426.22;;;;
2021/09/11 04:51:25;;;;;;;14.85;13.35;;;;;;;16.06;89.96191;95426.22;;;;
2021/09/11 04:52:26;;;;;;;14.4;13.05;;;;;;;16.04;90.92871;95435.21;;;;
2021/09/11 04:53:26;;;;;;;14.4;13.05;;;;;;;16.04;90.92871;95435.21;;;;
2021/09/11 04:54:27;;;;;;;14.4;13.05;;;;;;;16.04;90.92871;95435.21;;;;
2021/09/11 04:55:27;;;;;;;14.4;13.05;;;;;;;16.04;90.92871;95435.21;;;;
2021/09/11 04:56:28;;;;;;;14.4;13.05;;;;;;;16.04;90.92871;95435.21;;;;
2021/09/11 04:57:28;;;;;;;14.4;13.05;;;;;;;16.04;90.92871;95435.21;;;;
2021/09/11 04:58:29;;;;;;;14.4;13.05;;;;;;;16.04;90.92871;95435.21;;;;
2021/09/11 04:59:29;;;;;;;14.4;13.05;;;;;;;16.04;90.92871;95435.21;;;;
2021/09/11 05:00:30;;;;;;;14.4;13.05;;;;;;;16.04;90.92871;95435.21;;;;
2021/09/11 05:01:30;;;;;;;14.4;13.05;;;;;;;16.04;90.92871;95435.21;;;;
2021/09/11 05:02:31;;;;;;;16.9;15.2;;;;;;;16.03;91.8125;95433.95;;;;
2021/09/11 05:03:31;;;;;;;16.9;15.2;;;;;;;16.03;91.8125;95433.95;;;;
2021/09/11 05:04:32;;;;;;;16.9;15.2;;;;;;;16.03;91.8125;95433.95;;;;
2021/09/11 05:05:32;;;;;;;16.9;15.2;;;;;;;16.03;91.8125;95433.95;;;;
2021/09/11 05:06:33;;;;;;;16.9;15.2;;;;;;;16.03;91.8125;95433.95;;;;
2021/09/11 05:07:33;;;;;;;16.9;15.2;;;;;;;16.03;91.8125;95433.95;;;;
2021/09/11 05:08:34;;;;;;;16.9;15.2;;;;;;;16.03;91.8125;95433.95;;;;
2021/09/11 05:09:34;;;;;;;16.9;15.2;;;;;;;16.03;91.8125;95433.95;;;;
2021/09/11 05:10:35;;;;;;;16.9;15.2;;;;;;;16.03;91.8125;95433.95;;;;
2021/09/11 05:11:35;;;;;;;16.9;15.2;;;;;;;16.03;91.8125;95433.95;;;;
2021/09/11 05:12:36;;;;;;;16.9;15.2;;;;;;;16.03;91.8125;95433.95;;;;
2021/09/11 05:13:36;;;;;;;16.65;15.05;;;;;;;16.06;92.66797;95443.52;;;;
2021/09/11 05:14:37;;;;;;;16.65;15.05;;;;;;;16.06;92.66797;95443.52;;;;
2021/09/11 05:15:37;;;;;;;16.65;15.05;;;;;;;16.06;92.66797;95443.52;;;;
2021/09/11 05:16:38;;;;;;;16.65;15.05;;;;;;;16.06;92.66797;95443.52;;;;
2021/09/11 05:17:38;;;;;;;16.65;15.05;;;;;;;16.06;92.66797;95443.52;;;;
2021/09/11 05:18:39;;;;;;;16.65;15.05;;;;;;;16.06;92.66797;95443.52;;;;
2021/09/11 05:19:39;;;;;;;16.65;15.05;;;;;;;16.06;92.66797;95443.52;;;;
2021/09/11 05:20:40;;;;;;;16.65;15.05;;;;;;;16.06;92.66797;95443.52;;;;
2021/09/11 05:21:40;;;;;;;16.65;15.05;;;;;;;16.06;92.66797;95443.52;;;;
2021/09/11 05:22:41;;;;;;;16.65;15.05;;;;;;;16.06;92.66797;95443.52;;;;
2021/09/11 05:23:41;;;;;;;14.65;13.2;;;;;;;16.11;93.5293;95454.85;;;;
2021/09/11 05:24:42;;;;;;;14.65;13.2;;;;;;;16.11;93.5293;95454.85;;;;
2021/09/11 05:25:42;;;;;;;14.65;13.2;;;;;;;16.11;93.5293;95454.85;;;;
2021/09/11 05:26:43;;;;;;;14.65;13.2;;;;;;;16.11;93.5293;95454.85;;;;
2021/09/11 05:27:44;;;;;;;14.65;13.2;;;;;;;16.11;93.5293;95454.85;;;;
2021/09/11 05:28:44;;;;;;;14.65;13.2;;;;;;;16.11;93.5293;95454.85;;;;
2021/09/11 05:29:45;;;;;;;14.65;13.2;;;;;;;16.11;93.5293;95454.85;;;;
2021/09/11 05:30:45;;;;;;;14.65;13.2;;;;;;;16.11;93.5293;95454.85;;;;
2021/09/11 05:31:45;;;;;;;14.65;13.2;;;;;;;16.11;93.5293;95454.85;;;;
2021/09/11 05:32:46;;;;;;;14.65;13.2;;;;;;;16.11;93.5293;95454.85;;;;
2021/09/11 05:33:47;;;;;;;14.65;13.2;;;;;;;16.11;93.5293;95454.85;;;;
2021/09/11 05:34:47;;;;;;;15.8;14.3;;;;;;;16.19;94.29199;95469.71;;;;
2021/09/11 05:35:48;;;;;;;15.8;14.3;;;;;;;16.19;94.29199;95469.71;;;;
2021/09/11 05:36:50;;;;;;;15.8;14.3;;;;;;;16.19;94.29199;95469.71;;;;
2021/09/11 05:37:50;;;;;;;15.8;14.3;;;;;;;16.19;94.29199;95469.71;;;;
2021/09/11 05:38:51;;;;;;;15.8;14.3;;;;;;;16.19;94.29199;95469.71;;;;
2021/09/11 05:39:51;;;;;;;15.8;14.3;;;;;;;16.19;94.29199;95469.71;;;;
2021/09/11 05:40:52;;;;;;;15.8;14.3;;;;;;;16.19;94.29199;95469.71;;;;
2021/09/11 05:41:53;;;;;;;15.8;14.3;;;;;;;16.19;94.29199;95469.71;;;;